createdAt,value
2018-06-17T00:01:36.358Z,13.67
2018-06-17T00:04:05.649Z,10.17
2018-06-17T00:06:34.902Z,10.27
2018-06-17T00:09:06.150Z,13.50
2018-06-17T00:11:35.487Z,11.93
2018-06-17T00:14:05.045Z,9.87
2018-06-17T00:16:34.306Z,10.23
2018-06-17T00:19:03.672Z,12.03
2018-06-17T00:21:32.934Z,7.67
2018-06-17T00:24:02.256Z,10.70
2018-06-17T00:26:31.604Z,9.83
2018-06-17T00:29:00.843Z,10.33
2018-06-17T00:31:30.203Z,7.83
2018-06-17T00:33:59.500Z,12.27
2018-06-17T00:36:28.794Z,11.23
2018-06-17T00:38:58.094Z,12.20
2018-06-17T00:41:27.394Z,13.13
2018-06-17T00:43:57.198Z,8.67
2018-06-17T00:46:26.480Z,7.43
2018-06-17T00:48:55.835Z,9.63
2018-06-17T00:51:25.106Z,9.00
2018-06-17T00:53:54.358Z,8.27
2018-06-17T00:56:23.594Z,9.90
2018-06-17T00:58:52.996Z,8.93
2018-06-17T01:01:22.372Z,9.53
2018-06-17T01:03:51.813Z,9.77
2018-06-17T01:06:21.151Z,9.13
2018-06-17T01:08:50.446Z,7.93
2018-06-17T01:11:19.714Z,9.63
2018-06-17T01:13:48.998Z,12.13
2018-06-17T01:16:18.230Z,7.57
2018-06-17T01:18:47.525Z,12.57
2018-06-17T01:21:16.846Z,12.20
2018-06-17T01:23:46.698Z,9.90
2018-06-17T01:26:16.011Z,7.63
2018-06-17T01:28:45.369Z,9.17
2018-06-17T01:31:14.664Z,8.43
2018-06-17T01:33:43.912Z,6.03
2018-06-17T01:36:13.203Z,10.43
2018-06-17T01:38:42.469Z,8.30
2018-06-17T01:41:11.764Z,11.07
2018-06-17T01:43:40.982Z,7.47
2018-06-17T01:46:10.280Z,10.43
2018-06-17T01:48:39.541Z,10.77
2018-06-17T01:51:08.783Z,10.27
2018-06-17T01:53:38.029Z,8.93
2018-06-17T01:56:07.346Z,9.53
2018-06-17T01:58:36.569Z,8.90
2018-06-17T02:01:05.904Z,12.10
2018-06-17T02:03:40.303Z,11.93
2018-06-17T02:06:14.517Z,9.30
2018-06-17T02:08:49.011Z,11.30
2018-06-17T02:11:23.713Z,11.63
2018-06-17T02:13:53.566Z,7.20
2018-06-17T02:16:22.806Z,11.03
2018-06-17T02:18:52.066Z,7.97
2018-06-17T02:21:21.323Z,10.17
2018-06-17T02:23:50.572Z,10.33
2018-06-17T02:26:19.805Z,11.60
2018-06-17T02:28:49.037Z,8.13
2018-06-17T02:31:18.285Z,8.57
2018-06-17T02:33:47.544Z,9.00
2018-06-17T02:36:16.786Z,9.50
2018-06-17T02:38:47.062Z,9.97
2018-06-17T02:41:16.664Z,6.63
2018-06-17T02:43:46.569Z,9.70
2018-06-17T02:46:21.306Z,9.23
2018-06-17T02:48:55.897Z,10.27
2018-06-17T02:52:28.094Z,8.17
2018-06-17T02:54:57.322Z,7.37
2018-06-17T02:57:27.595Z,9.07
2018-06-17T02:59:56.891Z,10.13
2018-06-17T03:02:25.948Z,9.67
2018-06-17T03:04:55.183Z,8.93
2018-06-17T03:07:24.537Z,10.10
2018-06-17T03:09:53.834Z,7.00
2018-06-17T03:12:23.084Z,9.27
2018-06-17T03:14:52.334Z,7.40
2018-06-17T03:17:21.707Z,7.40
2018-06-17T03:19:51.148Z,8.10
2018-06-17T03:22:20.442Z,6.43
2018-06-17T03:24:54.931Z,9.03
2018-06-17T03:27:29.418Z,7.73
2018-06-17T03:30:03.986Z,7.37
2018-06-17T03:32:38.412Z,7.27
2018-06-17T03:35:13.685Z,9.67
2018-06-17T03:37:43.007Z,11.97
2018-06-17T03:40:12.246Z,8.00
2018-06-17T03:42:41.558Z,10.73
2018-06-17T03:45:10.806Z,8.30
2018-06-17T03:47:40.120Z,7.90
2018-06-17T03:50:09.346Z,8.13
2018-06-17T03:52:38.690Z,7.03
2018-06-17T03:55:08.059Z,7.83
2018-06-17T03:57:37.337Z,8.10
2018-06-17T04:00:06.688Z,4.83
2018-06-17T04:02:35.968Z,5.53
2018-06-17T04:05:10.626Z,6.73
2018-06-17T04:07:39.928Z,6.03
2018-06-17T04:10:09.156Z,6.93
2018-06-17T04:12:38.367Z,6.07
2018-06-17T04:15:07.936Z,4.97
2018-06-17T04:17:37.204Z,4.13
2018-06-17T04:20:06.442Z,2.80
2018-06-17T04:22:35.670Z,4.00
2018-06-17T04:25:04.972Z,3.27
2018-06-17T04:27:34.204Z,5.93
2018-06-17T04:30:03.553Z,4.40
2018-06-17T04:32:32.787Z,5.03
2018-06-17T04:35:02.106Z,6.10
2018-06-17T04:37:31.363Z,3.93
2018-06-17T04:40:00.628Z,4.33
2018-06-17T04:42:29.827Z,7.93
2018-06-17T04:44:59.089Z,4.43
2018-06-17T04:47:28.363Z,4.63
2018-06-17T04:49:57.647Z,4.70
2018-06-17T04:52:26.962Z,6.27
2018-06-17T04:54:56.247Z,5.40
2018-06-17T04:57:25.511Z,6.47
2018-06-17T04:59:54.823Z,5.20
2018-06-17T05:02:24.101Z,2.87
2018-06-17T05:04:53.411Z,5.47
2018-06-17T05:07:22.616Z,4.80
2018-06-17T05:09:51.916Z,4.27
2018-06-17T05:12:21.179Z,4.13
2018-06-17T05:14:50.490Z,6.10
2018-06-17T05:17:19.738Z,5.70
2018-06-17T05:19:49.013Z,5.30
2018-06-17T05:22:18.256Z,5.33
2018-06-17T05:24:47.792Z,5.80
2018-06-17T05:27:17.043Z,4.93
2018-06-17T05:29:46.327Z,6.03
2018-06-17T05:32:15.585Z,5.93
2018-06-17T05:34:44.886Z,5.20
2018-06-17T05:37:14.120Z,5.07
2018-06-17T05:39:43.408Z,5.50
2018-06-17T05:42:12.714Z,5.17
2018-06-17T05:44:42.068Z,4.00
2018-06-17T05:47:11.360Z,7.50
2018-06-17T05:49:40.786Z,6.47
2018-06-17T05:52:10.009Z,4.90
2018-06-17T05:54:38.963Z,7.17
2018-06-17T05:57:08.719Z,6.83
2018-06-17T05:59:38.110Z,5.77
2018-06-17T06:02:07.364Z,5.57
2018-06-17T06:04:36.643Z,6.50
2018-06-17T06:07:05.879Z,7.50
2018-06-17T06:09:35.094Z,3.90
2018-06-17T06:12:04.378Z,4.47
2018-06-17T06:14:33.624Z,4.70
2018-06-17T06:17:03.016Z,5.83
2018-06-17T06:19:32.256Z,7.20
2018-06-17T06:22:01.600Z,6.27
2018-06-17T06:24:31.446Z,5.07
2018-06-17T06:27:00.875Z,5.10
2018-06-17T06:29:30.302Z,6.30
2018-06-17T06:32:00.406Z,6.27
2018-06-17T06:34:29.748Z,6.13
2018-06-17T06:36:59.067Z,5.60
2018-06-17T06:39:28.367Z,8.10
2018-06-17T06:41:57.686Z,4.50
2018-06-17T06:44:26.943Z,9.20
2018-06-17T06:46:56.241Z,4.77
2018-06-17T06:49:25.519Z,6.03
2018-06-17T06:51:54.771Z,4.37
2018-06-17T06:54:24.039Z,6.17
2018-06-17T06:56:53.362Z,6.17
2018-06-17T06:59:22.699Z,8.17
2018-06-17T07:02:03.131Z,4.00
2018-06-17T07:04:43.655Z,5.73
2018-06-17T07:07:23.966Z,4.37
2018-06-17T07:10:04.528Z,5.23
2018-06-17T07:12:33.812Z,5.77
2018-06-17T07:15:03.145Z,4.33
2018-06-17T07:17:43.618Z,5.77
2018-06-17T07:20:13.164Z,6.50
2018-06-17T07:22:42.230Z,5.47
2018-06-17T07:25:20.088Z,5.47
2018-06-17T07:28:17.080Z,8.23
2018-06-17T07:30:46.135Z,5.93
2018-06-17T07:33:15.147Z,4.03
2018-06-17T07:35:44.206Z,5.67
2018-06-17T07:38:13.250Z,5.90
2018-06-17T07:40:52.766Z,7.13
2018-06-17T07:43:21.899Z,5.63
2018-06-17T07:45:50.963Z,5.63
2018-06-17T07:49:35.192Z,5.10
2018-06-17T07:52:16.557Z,7.20
2018-06-17T07:54:45.998Z,4.63
2018-06-17T07:57:16.446Z,5.27
2018-06-17T07:59:45.559Z,7.20
2018-06-17T08:02:15.346Z,7.67
2018-06-17T08:04:44.498Z,5.10
2018-06-17T08:07:13.431Z,6.90
2018-06-17T08:09:42.541Z,5.17
2018-06-17T08:12:12.403Z,5.80
2018-06-17T08:14:41.659Z,7.00
2018-06-17T08:17:10.817Z,4.93
2018-06-17T08:19:40.322Z,6.17
2018-06-17T08:22:09.563Z,5.47
2018-06-17T08:24:38.789Z,7.60
2018-06-17T08:27:07.856Z,7.87
2018-06-17T08:29:37.044Z,4.17
2018-06-17T08:32:06.152Z,6.93
2018-06-17T08:34:35.262Z,6.50
2018-06-17T08:37:04.295Z,6.03
2018-06-17T08:39:33.559Z,5.03
2018-06-17T08:42:02.599Z,4.10
2018-06-17T08:44:31.686Z,6.73
2018-06-17T08:47:00.818Z,5.30
2018-06-17T08:49:29.932Z,5.20
2018-06-17T08:51:59.044Z,5.10
2018-06-17T08:54:28.100Z,5.20
2018-06-17T08:56:57.332Z,4.87
2018-06-17T08:59:26.344Z,5.57
2018-06-17T09:01:55.455Z,8.37
2018-06-17T09:04:24.650Z,5.93
2018-06-17T09:06:53.705Z,5.07
2018-06-17T09:09:22.734Z,6.73
2018-06-17T09:11:51.772Z,5.27
2018-06-17T09:14:20.837Z,6.90
2018-06-17T09:16:49.822Z,4.57
2018-06-17T09:19:18.913Z,5.30
2018-06-17T09:21:47.927Z,4.63
2018-06-17T09:24:17.034Z,6.03
2018-06-17T09:26:46.100Z,5.70
2018-06-17T09:29:15.120Z,4.30
2018-06-17T09:31:44.223Z,4.57
2018-06-17T09:34:13.218Z,3.63
2018-06-17T09:36:41.907Z,3.60
2018-06-17T09:39:11.091Z,4.13
2018-06-17T09:41:40.155Z,4.30
2018-06-17T09:44:09.163Z,3.40
2018-06-17T09:46:38.155Z,6.00
2018-06-17T09:49:07.231Z,3.10
2018-06-17T09:51:36.300Z,4.43
2018-06-17T09:54:05.471Z,2.77
2018-06-17T09:56:34.531Z,4.90
2018-06-17T09:59:03.859Z,3.57
2018-06-17T10:01:32.919Z,3.23
2018-06-17T10:04:02.046Z,3.43
2018-06-17T10:06:31.068Z,5.30
2018-06-17T10:09:00.128Z,3.97
2018-06-17T10:11:29.238Z,2.20
2018-06-17T10:13:58.603Z,3.30
2018-06-17T10:16:28.045Z,3.57
2018-06-17T10:18:57.421Z,4.87
2018-06-17T10:21:26.671Z,3.83
2018-06-17T10:23:55.945Z,4.73
2018-06-17T10:26:25.207Z,3.57
2018-06-17T10:28:54.582Z,4.23
2018-06-17T10:31:23.934Z,3.33
2018-06-17T10:33:53.827Z,2.90
2018-06-17T10:36:23.054Z,3.20
2018-06-17T10:38:52.030Z,2.87
2018-06-17T10:41:21.211Z,3.17
2018-06-17T10:43:50.816Z,3.47
2018-06-17T10:46:20.115Z,5.23
2018-06-17T10:48:49.457Z,3.40
2018-06-17T10:51:18.703Z,6.00
2018-06-17T10:53:48.041Z,3.77
2018-06-17T10:56:17.364Z,4.70
2018-06-17T10:58:46.716Z,3.13
2018-06-17T11:01:16.024Z,4.83
2018-06-17T11:03:45.308Z,3.30
2018-06-17T11:06:14.232Z,3.70
2018-06-17T11:08:43.390Z,6.47
2018-06-17T11:11:12.699Z,3.37
2018-06-17T11:13:42.058Z,4.07
2018-06-17T11:16:11.386Z,2.90
2018-06-17T11:18:40.698Z,3.03
2018-06-17T11:21:09.998Z,5.73
2018-06-17T11:23:39.513Z,3.60
2018-06-17T11:26:08.922Z,4.00
2018-06-17T11:28:38.354Z,4.23
2018-06-17T11:31:07.712Z,4.13
2018-06-17T11:33:37.075Z,4.13
2018-06-17T11:36:07.311Z,4.87
2018-06-17T11:38:36.739Z,5.07
2018-06-17T11:41:06.042Z,3.20
2018-06-17T11:43:35.401Z,3.57
2018-06-17T11:46:04.720Z,6.03
2018-06-17T11:48:34.042Z,4.37
2018-06-17T11:51:03.411Z,2.63
2018-06-17T11:53:32.670Z,3.73
2018-06-17T11:56:01.974Z,3.43
2018-06-17T11:58:31.319Z,4.83
2018-06-17T12:01:00.574Z,3.33
2018-06-17T12:03:29.935Z,3.93
2018-06-17T12:05:59.238Z,4.57
2018-06-17T12:08:28.555Z,4.60
2018-06-17T12:10:57.997Z,4.87
2018-06-17T12:13:27.285Z,3.43
2018-06-17T12:15:56.270Z,6.97
2018-06-17T12:18:25.596Z,3.87
2018-06-17T12:20:54.983Z,4.67
2018-06-17T12:23:24.287Z,2.53
2018-06-17T12:25:53.217Z,4.07
2018-06-17T12:28:22.635Z,3.57
2018-06-17T12:30:52.020Z,4.73
2018-06-17T12:33:21.412Z,3.03
2018-06-17T12:35:50.655Z,4.77
2018-06-17T12:38:20.009Z,5.07
2018-06-17T12:40:49.038Z,3.33
2018-06-17T12:43:18.242Z,3.80
2018-06-17T12:45:47.604Z,3.43
2018-06-17T12:48:17.080Z,5.43
2018-06-17T12:50:46.419Z,7.97
2018-06-17T12:53:15.762Z,4.37
2018-06-17T12:55:45.110Z,8.40
2018-06-17T12:58:14.447Z,5.97
2018-06-17T13:00:44.042Z,4.90
2018-06-17T13:03:13.389Z,6.50
2018-06-17T13:05:42.834Z,5.53
2018-06-17T13:08:12.136Z,7.73
2018-06-17T13:10:41.408Z,6.00
2018-06-17T13:13:10.776Z,7.00
2018-06-17T13:15:40.175Z,7.43
2018-06-17T13:18:09.455Z,6.97
2018-06-17T13:20:38.760Z,8.70
2018-06-17T13:23:08.242Z,7.10
2018-06-17T13:25:37.623Z,8.63
2018-06-17T13:28:07.000Z,7.53
2018-06-17T13:30:36.389Z,8.13
2018-06-17T13:33:05.820Z,8.47
2018-06-17T13:35:35.971Z,7.50
2018-06-17T13:38:05.523Z,7.93
2018-06-17T13:40:35.803Z,7.80
2018-06-17T13:43:05.335Z,6.30
2018-06-17T13:45:34.856Z,6.60
2018-06-17T13:48:04.790Z,6.17
2018-06-17T13:50:34.253Z,6.93
2018-06-17T13:53:03.566Z,7.63
2018-06-17T13:55:33.745Z,7.83
2018-06-17T13:58:03.023Z,9.57
2018-06-17T14:00:32.317Z,6.93
2018-06-17T14:03:01.660Z,8.23
2018-06-17T14:05:31.019Z,5.83
2018-06-17T14:08:00.358Z,8.83
2018-06-17T14:10:29.738Z,8.30
2018-06-17T14:12:59.089Z,7.23
2018-06-17T14:15:28.148Z,6.70
2018-06-17T14:17:57.450Z,6.47
2018-06-17T14:20:26.736Z,6.47
2018-06-17T14:22:56.045Z,6.47
2018-06-17T14:25:25.374Z,5.43
2018-06-17T14:27:54.801Z,8.67
2018-06-17T14:30:24.099Z,8.07
2018-06-17T14:32:53.375Z,7.37
2018-06-17T14:35:22.737Z,7.33
2018-06-17T14:37:52.081Z,7.43
2018-06-17T14:40:21.358Z,6.53
2018-06-17T14:42:55.962Z,8.60
2018-06-17T14:45:30.624Z,8.27
2018-06-17T14:48:05.156Z,7.73
2018-06-17T14:50:39.832Z,10.40
2018-06-17T14:53:09.332Z,6.77
2018-06-17T14:55:38.630Z,5.13
2018-06-17T14:58:08.036Z,4.73
2018-06-17T15:00:37.305Z,7.33
2018-06-17T15:03:06.640Z,11.23
2018-06-17T15:05:35.880Z,8.80
2018-06-17T15:08:05.158Z,6.73
2018-06-17T15:10:34.467Z,6.73
2018-06-17T15:13:03.855Z,5.73
2018-06-17T15:15:33.197Z,10.67
2018-06-17T15:18:02.914Z,7.73
2018-06-17T15:20:32.227Z,8.43
2018-06-17T15:23:01.510Z,6.93
2018-06-17T15:25:30.811Z,8.17
2018-06-17T15:28:00.019Z,6.33
2018-06-17T15:30:29.839Z,6.27
2018-06-17T15:33:04.543Z,7.27
2018-06-17T15:35:39.343Z,7.33
2018-06-17T15:38:14.036Z,4.63
2018-06-17T15:40:48.850Z,9.37
2018-06-17T15:43:18.191Z,6.23
2018-06-17T15:45:47.476Z,8.47
2018-06-17T15:48:16.913Z,7.03
2018-06-17T15:50:46.340Z,9.07
2018-06-17T15:53:15.687Z,6.63
2018-06-17T15:55:44.976Z,9.50
2018-06-17T15:58:14.629Z,7.10
2018-06-17T16:00:43.880Z,6.33
2018-06-17T16:03:13.221Z,3.30
2018-06-17T16:05:42.509Z,6.80
2018-06-17T16:08:12.710Z,4.30
2018-06-17T16:10:42.069Z,6.07
2018-06-17T16:13:16.672Z,3.77
2018-06-17T16:15:51.338Z,3.77
2018-06-17T16:18:25.947Z,7.40
2018-06-17T16:20:59.417Z,5.67
2018-06-17T16:23:30.068Z,2.30
2018-06-17T16:25:59.467Z,7.97
2018-06-17T16:28:28.800Z,5.90
2018-06-17T16:30:58.173Z,5.40
2018-06-17T16:33:27.403Z,3.53
2018-06-17T16:35:56.670Z,6.03
2018-06-17T16:38:26.029Z,4.30
2018-06-17T16:40:55.286Z,3.37
2018-06-17T16:43:24.626Z,6.90
2018-06-17T16:45:53.897Z,6.10
2018-06-17T16:48:23.235Z,3.23
2018-06-17T16:50:57.736Z,6.00
2018-06-17T16:53:32.508Z,3.63
2018-06-17T16:56:06.962Z,6.37
2018-06-17T17:01:22.612Z,4.40
2018-06-17T17:03:52.074Z,4.93
2018-06-17T17:06:21.366Z,5.90
2018-06-17T17:08:50.807Z,4.80
2018-06-17T17:11:20.174Z,6.17
2018-06-17T17:13:49.823Z,12.10
2018-06-17T17:16:19.114Z,4.70
2018-06-17T17:18:48.426Z,6.63
2018-06-17T17:21:17.448Z,7.40
2018-06-17T17:23:46.773Z,5.33
2018-06-17T17:26:16.105Z,5.00
2018-06-17T17:28:45.408Z,3.50
2018-06-17T17:31:14.707Z,4.07
2018-06-17T17:33:49.300Z,6.03
2018-06-17T17:36:23.982Z,6.40
2018-06-17T17:38:58.760Z,11.13
2018-06-17T17:41:28.040Z,4.47
2018-06-17T17:43:57.495Z,7.27
2018-06-17T17:46:32.108Z,4.87
2018-06-17T17:49:01.411Z,4.63
2018-06-17T17:51:30.790Z,4.47
2018-06-17T17:54:00.121Z,4.07
2018-06-17T17:56:29.454Z,4.97
2018-06-17T17:58:58.804Z,5.53
2018-06-17T18:01:28.549Z,4.77
2018-06-17T18:03:58.036Z,2.43
2018-06-17T18:06:27.420Z,5.67
2018-06-17T18:08:56.374Z,5.53
2018-06-17T18:11:25.601Z,5.40
2018-06-17T18:13:54.999Z,5.27
2018-06-17T18:16:24.397Z,8.60
2018-06-17T18:18:53.372Z,5.63
2018-06-17T18:21:22.518Z,8.10
2018-06-17T18:23:51.953Z,7.53
2018-06-17T18:26:26.620Z,8.53
2018-06-17T18:29:01.340Z,4.17
2018-06-17T18:31:34.879Z,5.70
2018-06-17T18:34:09.671Z,6.93
2018-06-17T18:36:38.987Z,5.63
2018-06-17T18:39:08.679Z,5.33
2018-06-17T18:41:38.067Z,5.53
2018-06-17T18:44:07.447Z,6.17
2018-06-17T18:46:36.783Z,6.17
2018-06-17T18:49:06.247Z,3.47
2018-06-17T18:51:35.569Z,4.97
2018-06-17T18:54:04.997Z,5.83
2018-06-17T18:56:34.330Z,5.13
2018-06-17T18:59:03.676Z,5.00
2018-06-17T19:01:33.137Z,3.40
2018-06-17T19:04:02.518Z,6.23
2018-06-17T19:06:31.894Z,7.47
2018-06-17T19:09:06.410Z,5.03
2018-06-17T19:11:41.099Z,7.63
2018-06-17T19:14:15.635Z,6.43
2018-06-17T19:16:50.220Z,6.10
2018-06-17T19:19:19.641Z,5.23
2018-06-17T19:21:48.986Z,5.33
2018-06-17T19:24:18.321Z,6.03
2018-06-17T19:26:47.612Z,4.03
2018-06-17T19:29:17.007Z,4.97
2018-06-17T19:31:46.367Z,4.80
2018-06-17T19:34:15.664Z,3.80
2018-06-17T19:36:45.042Z,6.77
2018-06-17T19:39:14.379Z,3.40
2018-06-17T19:41:43.714Z,3.87
2018-06-17T19:44:13.170Z,5.33
2018-06-17T19:46:42.531Z,6.77
2018-06-17T19:49:11.855Z,5.80
2018-06-17T19:51:46.587Z,5.40
2018-06-17T19:54:21.169Z,5.60
2018-06-17T19:56:55.907Z,8.07
2018-06-17T19:59:30.464Z,7.50
2018-06-17T20:01:59.835Z,5.67
2018-06-17T20:04:29.237Z,7.73
2018-06-17T20:06:58.569Z,5.07
2018-06-17T20:09:27.936Z,5.03
2018-06-17T20:11:57.226Z,5.73
2018-06-17T20:14:26.538Z,4.83
2018-06-17T20:16:55.871Z,6.40
2018-06-17T20:19:25.145Z,6.93
2018-06-17T20:21:54.531Z,6.97
2018-06-17T20:24:23.844Z,4.80
2018-06-17T20:26:53.249Z,5.50
2018-06-17T20:29:22.545Z,6.50
2018-06-17T20:31:57.302Z,7.30
2018-06-17T20:34:31.899Z,6.10
2018-06-17T20:38:04.297Z,5.23
2018-06-17T20:40:38.911Z,6.17
2018-06-17T20:43:13.528Z,7.23
2018-06-17T20:45:42.856Z,5.23
2018-06-17T20:48:12.415Z,5.93
2018-06-17T20:50:41.717Z,7.57
2018-06-17T20:53:11.136Z,5.17
2018-06-17T20:55:40.436Z,4.80
2018-06-17T20:58:09.705Z,6.23
2018-06-17T21:00:38.957Z,5.23
2018-06-17T21:03:08.225Z,5.37
2018-06-17T21:05:37.181Z,5.57
2018-06-17T21:08:06.512Z,5.60
2018-06-17T21:10:35.763Z,7.47
2018-06-17T21:13:05.380Z,6.30
2018-06-17T21:15:34.691Z,4.83
2018-06-17T21:18:04.054Z,5.60
2018-06-17T21:20:38.568Z,3.77
2018-06-17T21:23:13.267Z,3.20
2018-06-17T21:25:48.024Z,6.37
2018-06-17T21:28:17.338Z,6.37
2018-06-17T21:30:46.630Z,3.77
2018-06-17T21:33:15.979Z,6.33
2018-06-17T21:35:45.262Z,6.43
2018-06-17T21:38:14.565Z,8.07
2018-06-17T21:40:43.895Z,3.93
2018-06-17T21:43:13.189Z,9.03
2018-06-17T21:45:42.527Z,3.53
2018-06-17T21:48:12.499Z,5.57
2018-06-17T21:50:41.739Z,5.63
2018-06-17T21:53:10.925Z,4.83
2018-06-17T21:55:40.536Z,4.33
2018-06-17T21:58:09.872Z,6.57
2018-06-17T22:00:39.223Z,4.33
2018-06-17T22:03:08.533Z,4.53
2018-06-17T22:05:38.957Z,3.97
2018-06-17T22:08:13.698Z,4.80
2018-06-17T22:11:48.284Z,6.63
2018-06-17T22:14:23.205Z,3.03
2018-06-17T22:16:58.087Z,4.27
2018-06-17T22:19:27.463Z,3.67
2018-06-17T22:21:57.084Z,2.93
2018-06-17T22:24:26.373Z,6.03
2018-06-17T22:26:55.884Z,7.23
2018-06-17T22:29:24.801Z,5.47
2018-06-17T22:31:54.267Z,7.23
2018-06-17T22:34:23.580Z,3.83
2018-06-17T22:36:52.710Z,4.77
2018-06-17T22:39:21.864Z,7.77
2018-06-17T22:41:51.145Z,6.30
2018-06-17T22:44:20.793Z,4.73
2018-06-17T22:46:50.089Z,4.60
2018-06-17T22:49:19.402Z,4.83
2018-06-17T22:51:48.775Z,3.83
2018-06-17T22:54:29.614Z,4.10
2018-06-17T22:57:04.700Z,5.40
2018-06-17T22:59:39.398Z,4.47
2018-06-17T23:02:14.087Z,4.17
2018-06-17T23:04:48.481Z,4.37
2018-06-17T23:07:23.060Z,5.63
2018-06-17T23:09:52.667Z,4.40
2018-06-17T23:12:21.968Z,8.40
2018-06-17T23:14:51.264Z,5.37
2018-06-17T23:17:20.886Z,4.40
2018-06-17T23:19:50.310Z,3.40
2018-06-17T23:22:19.599Z,6.37
2018-06-17T23:24:48.918Z,3.77
2018-06-17T23:27:18.226Z,5.60
2018-06-17T23:29:47.992Z,4.47
2018-06-17T23:32:17.319Z,4.27
2018-06-17T23:34:46.624Z,3.93
2018-06-17T23:37:16.001Z,3.67
2018-06-17T23:39:45.564Z,4.07
2018-06-17T23:42:15.130Z,5.07
2018-06-17T23:44:44.409Z,7.67
2018-06-17T23:47:18.982Z,4.43
2018-06-17T23:49:53.691Z,8.30
2018-06-17T23:52:28.201Z,6.23
2018-06-17T23:55:02.782Z,5.27
2018-06-17T23:57:32.129Z,4.27
